Time;durP1;ratioP1;P1;durP2;ratioP2;P2;SDS_P1;SDS_P2;PMS_P1;PMS_P2;Temp;Humidity;BMP_temperature;BMP_pressure;BME280_temperature;BME280_humidity;BME280_pressure;Samples;Min_cycle;Max_cycle;Signal;HPM_P1;HPM_P2
2021/12/14 00:00:34;;;;;;;46.20;31.33;;;20.10;85.50;;;;;;1853498;76;21815;-89
2021/12/14 00:03:05;;;;;;;45.25;32.08;;;20.20;85.50;;;;;;1854324;76;21641;-91
2021/12/14 00:05:39;;;;;;;51.92;32.95;;;20.20;85.20;;;;;;1838646;76;21212;-89
2021/12/14 00:08:13;;;;;;;42.03;28.98;;;20.20;84.80;;;;;;1834502;76;21138;-90
2021/12/14 00:13:43;;;;;;;44.98;29.60;;;20.30;84.80;;;;;;1841468;76;21213;-91
2021/12/14 00:15:55;;;;;;;46.15;32.00;;;20.40;84.60;;;;;;1841138;76;21228;-92
2021/12/14 00:18:27;;;;;;;46.15;31.48;;;20.50;84.10;;;;;;1796589;77;21135;-90
2021/12/14 00:21:00;;;;;;;41.70;29.32;;;20.50;83.70;;;;;;1847658;76;21083;-90
2021/12/14 00:26:05;;;;;;;43.95;29.52;;;20.70;83.20;;;;;;1839392;76;21119;-89
2021/12/14 00:28:37;;;;;;;40.20;28.40;;;20.70;82.70;;;;;;1845186;76;21166;-91
2021/12/14 00:31:10;;;;;;;49.73;31.12;;;20.70;82.80;;;;;;1859289;76;21296;-89
2021/12/14 00:33:43;;;;;;;45.45;29.27;;;20.70;82.50;;;;;;1845956;76;21211;-91
2021/12/14 00:36:16;;;;;;;44.90;28.57;;;20.70;82.60;;;;;;1842457;76;21135;-90
2021/12/14 00:38:51;;;;;;;41.23;28.73;;;20.80;82.50;;;;;;1846481;76;21725;-91
2021/12/14 00:41:25;;;;;;;38.53;26.23;;;20.80;82.20;;;;;;1838624;76;21110;-90
2021/12/14 00:44:01;;;;;;;43.75;29.57;;;20.90;82.30;;;;;;1820373;76;21638;-76
2021/12/14 00:46:35;;;;;;;45.28;29.15;;;21.00;81.40;;;;;;1823850;77;21603;-76
2021/12/14 00:49:07;;;;;;;39.73;27.60;;;20.90;81.20;;;;;;1835374;76;21171;-75
2021/12/14 00:51:38;;;;;;;42.00;29.20;;;20.90;81.70;;;;;;1840783;77;21174;-76
2021/12/14 00:54:12;;;;;;;71.45;31.45;;;21.00;81.40;;;;;;1845957;76;21185;-77
2021/12/14 00:56:46;;;;;;;39.55;27.35;;;21.00;81.40;;;;;;1844230;76;21138;-75
2021/12/14 00:59:19;;;;;;;42.55;28.57;;;21.10;81.20;;;;;;1840785;76;21612;-76
2021/12/14 01:01:52;;;;;;;44.65;27.35;;;21.20;80.00;;;;;;1837587;76;21266;-75
2021/12/14 01:04:26;;;;;;;42.27;28.87;;;21.20;81.10;;;;;;1843214;76;21225;-75
2021/12/14 01:06:58;;;;;;;44.73;30.02;;;21.20;80.10;;;;;;1844702;77;21165;-75
2021/12/14 01:09:31;;;;;;;41.88;29.27;;;21.30;79.20;;;;;;1846033;76;21685;-75
2021/12/14 01:12:08;;;;;;;42.48;28.60;;;21.40;79.80;;;;;;1842239;76;22127;-76
2021/12/14 01:14:42;;;;;;;41.45;28.15;;;21.40;79.30;;;;;;1854138;77;21078;-77
2021/12/14 01:17:25;;;;;;;41.08;27.50;;;21.40;79.30;;;;;;1843527;77;21068;-74
2021/12/14 01:19:55;;;;;;;38.23;27.25;;;21.50;78.80;;;;;;1846874;76;21624;-74
2021/12/14 01:25:02;;;;;;;39.03;27.22;;;21.60;78.60;;;;;;1841967;76;21626;-76
2021/12/14 01:27:33;;;;;;;35.50;25.97;;;21.60;78.30;;;;;;1839606;76;21149;-79
2021/12/14 01:30:07;;;;;;;36.05;25.52;;;21.70;78.20;;;;;;1847474;76;21062;-78
2021/12/14 01:32:41;;;;;;;34.33;25.20;;;21.80;78.20;;;;;;1851765;76;21662;-76
2021/12/14 01:35:13;;;;;;;35.78;24.45;;;21.80;77.90;;;;;;1841055;76;21090;-75
2021/12/14 01:38:00;;;;;;;38.33;24.57;;;21.90;77.50;;;;;;1848338;76;21161;-76
2021/12/14 01:40:46;;;;;;;33.45;22.67;;;22.00;76.90;;;;;;1843053;76;21228;-76
2021/12/14 01:42:53;;;;;;;30.40;22.90;;;22.00;76.40;;;;;;1839028;76;21237;-74
2021/12/14 01:45:26;;;;;;;34.40;23.40;;;22.00;76.60;;;;;;1810894;78;21226;-76
2021/12/14 01:47:59;;;;;;;32.67;22.82;;;22.10;76.30;;;;;;1806792;78;21187;-75
2021/12/14 01:50:32;;;;;;;32.85;22.30;;;22.10;76.40;;;;;;1773699;79;21208;-73
2021/12/14 01:53:05;;;;;;;29.75;22.45;;;22.10;76.00;;;;;;1838076;76;21195;-75
2021/12/14 01:55:37;;;;;;;32.15;22.05;;;22.20;76.00;;;;;;1855244;76;21225;-75
2021/12/14 01:58:10;;;;;;;27.52;21.05;;;22.30;75.80;;;;;;1837524;76;21111;-74
2021/12/14 02:00:43;;;;;;;30.82;20.45;;;22.30;74.40;;;;;;1838571;76;21759;-75
2021/12/14 02:03:16;;;;;;;31.70;20.72;;;22.30;74.50;;;;;;1843017;76;21162;-76
2021/12/14 02:05:49;;;;;;;31.82;20.65;;;22.40;74.50;;;;;;1849931;76;21226;-72
2021/12/14 02:08:21;;;;;;;30.15;21.42;;;22.50;74.50;;;;;;1851219;76;21666;-73
2021/12/14 02:10:53;;;;;;;33.18;21.65;;;22.50;74.10;;;;;;1855488;75;21229;-75
2021/12/14 02:13:26;;;;;;;33.10;21.12;;;22.60;74.10;;;;;;1869640;75;21112;-74
2021/12/14 02:15:59;;;;;;;26.93;20.15;;;22.60;73.90;;;;;;1862863;75;21830;-73
2021/12/14 02:18:32;;;;;;;27.45;20.43;;;22.60;73.50;;;;;;1859087;75;21171;-73
2021/12/14 02:21:05;;;;;;;31.80;20.48;;;22.70;73.70;;;;;;1821144;77;21204;-79
2021/12/14 02:23:39;;;;;;;30.10;20.68;;;22.80;73.50;;;;;;1862720;75;21167;-74
2021/12/14 02:26:12;;;;;;;28.67;20.05;;;22.80;73.10;;;;;;1854310;77;21088;-74
2021/12/14 02:28:44;;;;;;;31.42;20.88;;;22.90;72.90;;;;;;1868402;75;21139;-73
2021/12/14 02:31:18;;;;;;;31.33;20.27;;;22.90;72.50;;;;;;1866545;75;21115;-74
2021/12/14 02:34:10;;;;;;;36.13;21.12;;;22.90;72.50;;;;;;1865630;75;21696;-75
2021/12/14 02:36:44;;;;;;;29.92;21.17;;;23.00;72.30;;;;;;1784726;78;21210;-73
2021/12/14 02:41:51;;;;;;;29.50;19.60;;;23.10;71.50;;;;;;1782469;79;21161;-72
2021/12/14 02:44:24;;;;;;;31.82;21.73;;;23.10;71.80;;;;;;1781484;80;21432;-74
2021/12/14 02:46:57;;;;;;;30.23;20.70;;;23.10;71.60;;;;;;1777677;79;21233;-74
2021/12/14 02:49:30;;;;;;;39.98;20.60;;;23.20;71.70;;;;;;1738018;82;21628;-74
2021/12/14 02:52:04;;;;;;;37.73;20.80;;;23.20;71.20;;;;;;1781362;80;21628;-75
2021/12/14 02:54:42;;;;;;;35.50;20.05;;;23.30;71.40;;;;;;1779900;80;21791;-74
2021/12/14 02:57:12;;;;;;;28.95;20.57;;;23.30;70.60;;;;;;1769263;80;21773;-74
2021/12/14 02:59:45;;;;;;;31.65;21.30;;;23.40;70.00;;;;;;1774817;80;21174;-74
2021/12/14 03:02:18;;;;;;;29.30;20.48;;;23.30;70.00;;;;;;1775309;80;21655;-75
2021/12/14 03:04:51;;;;;;;29.92;20.80;;;23.40;70.30;;;;;;1781321;79;21131;-76
2021/12/14 03:07:25;;;;;;;29.65;21.48;;;23.40;70.20;;;;;;1778175;79;21201;-76
2021/12/14 03:10:16;;;;;;;29.35;20.85;;;23.50;69.80;;;;;;1784858;79;21119;-76
2021/12/14 03:12:33;;;;;;;29.45;22.05;;;23.50;69.40;;;;;;1776246;79;21268;-74
2021/12/14 03:15:06;;;;;;;31.82;21.33;;;23.60;69.30;;;;;;1777814;79;21209;-76
2021/12/14 03:17:39;;;;;;;33.88;22.05;;;23.60;69.40;;;;;;1781143;79;21273;-74
2021/12/14 03:20:14;;;;;;;27.80;20.12;;;23.70;69.20;;;;;;1778018;79;22146;-69
2021/12/14 03:22:47;;;;;;;31.60;21.30;;;23.80;68.70;;;;;;1749870;82;21200;-72
2021/12/14 03:25:20;;;;;;;29.57;22.52;;;23.80;68.60;;;;;;1777190;79;21155;-72
2021/12/14 03:27:52;;;;;;;29.37;21.27;;;23.90;68.50;;;;;;1774737;79;21111;-70
2021/12/14 03:30:26;;;;;;;31.73;23.00;;;24.00;68.20;;;;;;1784979;79;21160;-73
2021/12/14 03:33:00;;;;;;;32.13;22.25;;;24.10;68.40;;;;;;1770813;79;21238;-73
2021/12/14 03:35:33;;;;;;;27.55;21.68;;;24.20;68.30;;;;;;1786465;79;21250;-73
2021/12/14 03:38:06;;;;;;;28.85;21.35;;;24.20;67.90;;;;;;1779177;79;21139;-72
2021/12/14 03:40:36;;;;;;;30.52;20.57;;;24.30;67.00;;;;;;1787562;79;21178;-73
2021/12/14 03:43:07;;;;;;;27.80;20.68;;;24.30;66.70;;;;;;1778303;79;21184;-74
2021/12/14 03:45:39;;;;;;;29.95;21.60;;;24.40;67.10;;;;;;1754030;80;21106;-72
2021/12/14 03:48:10;;;;;;;27.02;20.57;;;24.40;66.50;;;;;;1775229;80;21201;-72
2021/12/14 03:50:42;;;;;;;33.08;21.45;;;24.60;67.40;;;;;;1782369;79;21080;-72
2021/12/14 03:53:14;;;;;;;30.15;20.77;;;24.70;66.60;;;;;;1770933;80;21211;-73
2021/12/14 03:55:47;;;;;;;27.17;19.70;;;24.80;66.20;;;;;;1783920;79;21727;-72
2021/12/14 03:58:20;;;;;;;29.55;21.70;;;24.90;66.00;;;;;;1783393;79;21150;-72
2021/12/14 04:00:54;;;;;;;25.17;19.10;;;25.00;65.50;;;;;;1783315;79;21167;-72
2021/12/14 04:03:28;;;;;;;27.60;19.65;;;25.10;64.60;;;;;;1750289;80;21569;-73
2021/12/14 04:05:59;;;;;;;26.42;19.55;;;25.30;69.00;;;;;;1787344;79;21603;-73
2021/12/14 04:08:30;;;;;;;30.25;21.75;;;25.20;62.70;;;;;;1783321;80;21621;-74
2021/12/14 04:11:04;;;;;;;27.93;21.95;;;25.40;61.60;;;;;;1751033;80;21192;-73
2021/12/14 04:13:37;;;;;;;27.42;22.67;;;25.50;62.00;;;;;;1790013;79;21801;-72
2021/12/14 04:16:10;;;;;;;27.48;19.87;;;25.60;61.20;;;;;;1779221;79;21236;-72
2021/12/14 04:18:41;;;;;;;29.95;22.48;;;25.70;60.50;;;;;;1750525;80;21330;-71
2021/12/14 04:21:13;;;;;;;26.37;20.20;;;25.80;60.70;;;;;;1777231;80;21682;-72
2021/12/14 04:23:46;;;;;;;29.50;21.57;;;25.90;59.90;;;;;;1784143;80;21180;-71
2021/12/14 04:26:18;;;;;;;22.62;18.30;;;25.90;59.90;;;;;;1775183;80;21192;-71
2021/12/14 04:28:51;;;;;;;25.85;18.15;;;26.10;58.90;;;;;;1779962;80;21249;-71
2021/12/14 04:31:22;;;;;;;25.27;18.07;;;26.20;59.20;;;;;;1766091;80;21150;-71
2021/12/14 04:33:56;;;;;;;24.70;18.52;;;26.20;59.20;;;;;;1776484;79;21158;-71
2021/12/14 04:36:29;;;;;;;26.02;18.82;;;26.30;60.00;;;;;;1756151;80;21597;-71
2021/12/14 04:39:23;;;;;;;25.23;18.48;;;26.30;58.90;;;;;;1788578;79;22094;-72
2021/12/14 04:54:19;;;;;;;23.32;18.40;;;26.80;58.60;;;;;;1753810;80;21187;-81
2021/12/14 04:56:50;;;;;;;28.05;18.95;;;26.80;58.00;;;;;;1779293;80;21648;-81
2021/12/14 04:59:23;;;;;;;27.95;18.75;;;26.80;57.40;;;;;;1790703;79;21096;-80
2021/12/14 05:01:56;;;;;;;24.25;18.85;;;26.90;57.30;;;;;;1772884;79;21182;-82
2021/12/14 05:04:28;;;;;;;27.70;18.75;;;27.00;57.50;;;;;;1777653;79;21107;-81
2021/12/14 05:07:25;;;;;;;22.62;17.70;;;27.00;58.00;;;;;;1784952;79;21668;-79
2021/12/14 05:09:34;;;;;;;24.55;19.23;;;27.10;57.80;;;;;;1767904;79;21677;-79
2021/12/14 05:12:08;;;;;;;24.18;18.17;;;27.10;56.80;;;;;;1770078;79;21149;-80
2021/12/14 05:14:41;;;;;;;23.35;18.57;;;27.20;57.30;;;;;;1776063;80;21189;-80
2021/12/14 05:17:14;;;;;;;22.67;17.98;;;27.30;57.80;;;;;;1785639;79;21567;-80
2021/12/14 05:19:47;;;;;;;25.32;18.20;;;27.40;58.00;;;;;;1777337;80;21658;-80
2021/12/14 05:22:21;;;;;;;22.52;18.02;;;27.50;56.30;;;;;;1775462;80;21238;-75
2021/12/14 05:24:54;;;;;;;26.10;19.82;;;27.50;56.30;;;;;;1775653;79;21217;-75
2021/12/14 05:27:28;;;;;;;24.43;18.50;;;27.60;56.60;;;;;;1779125;79;21800;-74
2021/12/14 05:30:02;;;;;;;25.92;19.07;;;27.60;55.80;;;;;;1784307;79;21669;-80
2021/12/14 05:32:33;;;;;;;24.07;18.42;;;27.70;55.90;;;;;;1746562;82;21181;-84
2021/12/14 05:35:08;;;;;;;24.55;18.82;;;27.70;56.00;;;;;;1766406;79;21283;-84
2021/12/14 05:37:47;;;;;;;25.57;18.35;;;27.80;54.90;;;;;;1758317;80;21603;-84
2021/12/14 05:40:22;;;;;;;22.75;18.25;;;27.80;55.10;;;;;;1762626;80;21191;-85
2021/12/14 05:45:23;;;;;;;26.82;19.62;;;28.10;61.20;;;;;;1734348;82;21658;-84
2021/12/14 05:47:56;;;;;;;30.95;19.70;;;28.10;63.80;;;;;;1761780;80;22175;-83
2021/12/14 05:50:30;;;;;;;23.40;18.95;;;28.20;75.80;;;;;;1761308;80;21228;-84
2021/12/14 05:53:02;;;;;;;27.07;19.60;;;28.30;71.50;;;;;;1754933;81;21631;-84
2021/12/14 05:55:35;;;;;;;22.62;19.10;;;28.30;72.40;;;;;;1760439;80;21152;-83
2021/12/14 05:58:08;;;;;;;24.02;18.52;;;28.40;80.30;;;;;;1764606;80;21180;-85
2021/12/14 06:00:44;;;;;;;23.98;19.15;;;28.40;82.50;;;;;;1760585;80;21149;-84
2021/12/14 06:03:15;;;;;;;30.68;19.48;;;28.40;81.70;;;;;;1730699;81;21300;-83
2021/12/14 06:05:46;;;;;;;22.25;18.70;;;28.40;82.30;;;;;;1768741;80;21724;-83
2021/12/14 06:08:18;;;;;;;26.23;18.92;;;;;;;;;;1729337;82;21595;-73
2021/12/14 06:10:49;;;;;;;23.45;18.50;;;;;;;;;;1758509;80;21270;-72
2021/12/14 06:13:20;;;;;;;28.55;19.98;;;;;;;;;;1714534;83;21655;-72
2021/12/14 06:15:53;;;;;;;26.60;19.87;;;;;;;;;;1733779;82;21179;-72
2021/12/14 06:18:24;;;;;;;26.23;19.48;;;28.40;94.90;;;;;;1703136;82;21166;-72
2021/12/14 06:20:55;;;;;;;27.87;19.82;;;28.40;54.20;;;;;;1763831;80;21165;-72
2021/12/14 06:23:31;;;;;;;26.02;19.23;;;28.50;53.70;;;;;;1769715;80;21137;-72
2021/12/14 06:26:00;;;;;;;26.60;19.30;;;28.40;53.80;;;;;;1732665;82;21244;-72
2021/12/14 06:28:32;;;;;;;23.83;19.00;;;28.40;53.90;;;;;;1757425;80;21825;-72
2021/12/14 06:31:04;;;;;;;25.15;18.37;;;28.40;53.70;;;;;;1771990;80;21105;-74
2021/12/14 06:33:35;;;;;;;21.68;18.25;;;28.40;53.90;;;;;;1761242;80;21129;-72
2021/12/14 06:36:08;;;;;;;23.42;17.42;;;28.30;53.60;;;;;;1758800;80;21201;-73
2021/12/14 06:38:39;;;;;;;22.37;17.37;;;28.30;53.70;;;;;;1727381;82;21233;-73
2021/12/14 06:41:11;;;;;;;20.95;17.52;;;28.30;53.20;;;;;;1759462;80;21139;-73
2021/12/14 06:43:42;;;;;;;20.32;16.55;;;28.20;53.60;;;;;;1735778;81;21174;-73
2021/12/14 06:46:15;;;;;;;21.25;17.25;;;28.20;53.90;;;;;;1762836;80;21585;-73
2021/12/14 06:48:48;;;;;;;20.80;16.93;;;28.20;54.20;;;;;;1762003;80;21224;-70
2021/12/14 06:51:24;;;;;;;24.77;16.90;;;28.30;53.80;;;;;;1762542;80;21557;-73
2021/12/14 06:53:55;;;;;;;21.15;16.93;;;28.30;54.20;;;;;;1760319;80;21157;-73
2021/12/14 06:56:28;;;;;;;21.15;16.52;;;28.30;53.70;;;;;;1766271;80;21162;-73
2021/12/14 06:59:02;;;;;;;20.77;17.10;;;28.30;53.50;;;;;;1729512;82;21687;-72
2021/12/14 07:01:35;;;;;;;20.95;16.75;;;28.20;53.80;;;;;;1759496;80;21555;-72
2021/12/14 07:04:09;;;;;;;21.20;16.82;;;28.30;54.70;;;;;;1755586;80;22438;-72
2021/12/14 07:06:42;;;;;;;20.92;16.97;;;28.20;53.50;;;;;;1764343;80;21185;-72
2021/12/14 07:09:15;;;;;;;24.60;17.60;;;28.30;53.80;;;;;;1760437;80;21229;-72
2021/12/14 07:11:49;;;;;;;21.15;15.78;;;28.30;53.20;;;;;;1760507;80;21632;-71
2021/12/14 07:14:22;;;;;;;21.57;16.48;;;28.30;53.60;;;;;;1764395;80;21192;-71
2021/12/14 07:16:55;;;;;;;22.48;17.42;;;28.30;53.70;;;;;;1759136;80;21207;-71
2021/12/14 07:19:29;;;;;;;20.72;16.30;;;28.30;54.10;;;;;;1760528;80;21231;-71
2021/12/14 07:21:59;;;;;;;22.50;16.42;;;28.30;54.10;;;;;;1762704;80;21667;-72
2021/12/14 07:24:32;;;;;;;21.90;16.32;;;28.20;53.60;;;;;;1766794;80;21228;-72
2021/12/14 07:27:05;;;;;;;20.55;17.05;;;28.20;53.40;;;;;;1763190;80;21543;-72
2021/12/14 07:29:36;;;;;;;21.52;16.87;;;28.20;53.70;;;;;;1762046;80;21530;-71
2021/12/14 07:32:08;;;;;;;22.32;17.40;;;28.20;53.90;;;;;;1762385;80;21200;-72
2021/12/14 07:34:39;;;;;;;21.30;16.40;;;28.30;54.30;;;;;;1765365;80;21302;-72
2021/12/14 07:37:09;;;;;;;19.37;15.68;;;28.30;54.40;;;;;;1761233;80;21644;-72
2021/12/14 07:39:40;;;;;;;20.80;16.67;;;28.30;54.10;;;;;;1760271;80;21298;-71
2021/12/14 07:42:14;;;;;;;18.52;16.30;;;28.30;55.00;;;;;;1761827;80;21171;-74
2021/12/14 07:44:45;;;;;;;19.40;16.37;;;28.30;54.10;;;;;;1762077;80;21585;-71
2021/12/14 07:47:20;;;;;;;28.00;16.05;;;28.30;54.10;;;;;;1758032;80;21247;-72
2021/12/14 07:49:54;;;;;;;30.90;17.85;;;28.30;53.60;;;;;;1759218;80;21196;-71
2021/12/14 07:52:26;;;;;;;21.25;15.72;;;28.30;53.70;;;;;;1760842;80;21142;-72
2021/12/14 07:55:01;;;;;;;19.95;15.88;;;28.30;53.80;;;;;;1756446;81;21699;-73
2021/12/14 07:57:34;;;;;;;19.12;15.98;;;28.30;53.20;;;;;;1756909;80;21236;-73
2021/12/14 08:00:08;;;;;;;21.20;15.93;;;28.20;53.60;;;;;;1766420;80;21671;-73
2021/12/14 08:02:41;;;;;;;19.80;15.00;;;28.30;53.90;;;;;;1769876;80;21465;-73
2021/12/14 08:05:12;;;;;;;18.92;15.85;;;28.30;53.60;;;;;;1759524;80;21193;-72
2021/12/14 08:07:46;;;;;;;20.68;15.68;;;28.20;53.40;;;;;;1725109;83;21773;-72
2021/12/14 08:10:21;;;;;;;19.23;16.50;;;28.20;53.80;;;;;;1757138;80;21172;-72
2021/12/14 08:12:54;;;;;;;19.17;15.20;;;28.10;53.60;;;;;;1759310;80;21137;-72
2021/12/14 08:15:26;;;;;;;20.52;15.98;;;28.10;54.10;;;;;;1792756;80;21650;-72
2021/12/14 08:17:59;;;;;;;19.45;15.75;;;28.10;53.70;;;;;;1762281;80;21178;-72
2021/12/14 08:20:32;;;;;;;20.52;16.32;;;28.20;53.90;;;;;;1766781;80;21143;-72
2021/12/14 08:23:05;;;;;;;21.60;16.57;;;28.10;53.90;;;;;;1760880;80;21178;-72
2021/12/14 08:25:36;;;;;;;24.55;15.23;;;28.10;53.70;;;;;;1756727;80;21169;-71
2021/12/14 08:28:08;;;;;;;20.23;15.20;;;28.10;54.10;;;;;;1757034;81;21260;-69
2021/12/14 08:30:43;;;;;;;18.57;15.72;;;28.10;53.80;;;;;;1762685;80;21168;-70
2021/12/14 08:33:16;;;;;;;18.65;15.72;;;28.10;53.90;;;;;;1759458;80;21794;-72
2021/12/14 08:35:47;;;;;;;19.37;15.40;;;28.10;53.90;;;;;;1757125;81;21223;-73
2021/12/14 08:38:19;;;;;;;21.77;15.00;;;28.00;54.30;;;;;;1757116;80;21232;-73
2021/12/14 08:40:53;;;;;;;21.12;15.00;;;28.00;54.20;;;;;;1767726;80;21182;-71
2021/12/14 08:43:27;;;;;;;26.30;15.98;;;28.00;54.20;;;;;;1739609;80;21154;-73
2021/12/14 08:45:59;;;;;;;19.60;16.40;;;28.00;54.40;;;;;;1763205;80;21140;-72
2021/12/14 08:48:34;;;;;;;21.48;15.70;;;28.00;53.90;;;;;;1738793;81;21546;-72
2021/12/14 08:51:15;;;;;;;20.70;15.25;;;28.00;54.20;;;;;;1702372;83;21273;-71
2021/12/14 08:53:43;;;;;;;18.23;15.08;;;27.90;54.40;;;;;;1756212;80;21248;-72
2021/12/14 08:56:16;;;;;;;20.05;15.35;;;27.90;54.20;;;;;;1760032;80;21652;-72
2021/12/14 08:58:48;;;;;;;21.40;16.05;;;27.90;54.60;;;;;;1766973;80;21108;-72
2021/12/14 09:01:22;;;;;;;22.13;15.63;;;27.90;54.60;;;;;;1727259;81;21218;-71
2021/12/14 09:03:56;;;;;;;19.55;15.40;;;27.90;54.50;;;;;;1758121;80;21251;-71
2021/12/14 09:06:30;;;;;;;17.82;15.50;;;27.90;54.20;;;;;;1737975;82;21225;-72
2021/12/14 09:09:03;;;;;;;19.25;15.40;;;27.90;54.40;;;;;;1755313;80;21098;-72
2021/12/14 09:11:54;;;;;;;18.45;15.85;;;27.80;54.90;;;;;;1757907;81;22523;-71
2021/12/14 09:14:25;;;;;;;19.05;14.90;;;27.80;54.40;;;;;;1841818;76;21119;-71
2021/12/14 09:16:59;;;;;;;19.37;14.47;;;27.80;54.20;;;;;;1838637;78;21067;-72
2021/12/14 09:19:32;;;;;;;19.65;15.20;;;27.80;54.40;;;;;;1834865;78;21617;-72
2021/12/14 09:22:05;;;;;;;20.50;16.15;;;27.80;54.50;;;;;;1837621;78;21154;-70
2021/12/14 09:24:36;;;;;;;22.40;15.65;;;27.80;54.50;;;;;;1842378;76;21171;-71
2021/12/14 09:27:10;;;;;;;21.87;16.25;;;27.80;54.60;;;;;;1841234;76;21753;-72
2021/12/14 09:29:41;;;;;;;19.87;16.42;;;27.80;54.40;;;;;;1839808;78;21796;-71
2021/12/14 09:32:19;;;;;;;20.00;16.55;;;27.80;54.80;;;;;;1839490;78;21076;-72
2021/12/14 09:34:48;;;;;;;20.05;17.35;;;27.80;54.70;;;;;;1845421;76;21264;-72
2021/12/14 09:37:20;;;;;;;23.35;17.60;;;27.70;54.70;;;;;;1849558;76;21684;-72
2021/12/14 09:39:53;;;;;;;24.05;17.90;;;27.70;54.80;;;;;;1852967;76;21190;-71
2021/12/14 09:42:26;;;;;;;22.27;16.95;;;27.70;55.00;;;;;;1843577;76;21669;-71
2021/12/14 09:45:00;;;;;;;21.02;16.77;;;27.60;55.10;;;;;;1845795;76;21672;-71
2021/12/14 09:47:33;;;;;;;22.02;16.75;;;27.60;54.80;;;;;;1836022;76;21118;-71
2021/12/14 09:50:06;;;;;;;27.20;17.57;;;27.60;55.10;;;;;;1839237;76;21142;-69
2021/12/14 09:52:39;;;;;;;24.07;18.77;;;27.50;55.40;;;;;;1829084;77;21153;-72
2021/12/14 09:55:12;;;;;;;23.07;17.82;;;27.50;55.60;;;;;;1843938;76;21138;-71
2021/12/14 09:57:47;;;;;;;24.23;17.55;;;27.50;55.20;;;;;;1834568;77;21189;-71
2021/12/14 10:00:20;;;;;;;20.95;17.92;;;27.40;55.30;;;;;;1841381;76;21196;-70
2021/12/14 10:02:54;;;;;;;23.73;16.97;;;27.40;55.50;;;;;;1840981;76;21091;-70
2021/12/14 10:05:27;;;;;;;26.15;18.60;;;27.30;55.60;;;;;;1843938;76;21181;-73
2021/12/14 10:08:00;;;;;;;24.52;18.12;;;27.30;55.90;;;;;;1841003;78;21377;-72
2021/12/14 10:10:36;;;;;;;23.65;17.85;;;27.20;56.70;;;;;;1840644;76;21095;-72
2021/12/14 10:13:06;;;;;;;22.55;17.98;;;27.20;56.00;;;;;;1833534;76;21461;-72
2021/12/14 10:15:38;;;;;;;23.85;17.87;;;27.20;56.00;;;;;;1839104;76;21260;-72
2021/12/14 10:18:11;;;;;;;25.15;18.00;;;27.10;56.00;;;;;;1838441;78;21186;-72
2021/12/14 10:20:44;;;;;;;23.70;16.70;;;27.10;56.30;;;;;;1844184;76;21178;-71
2021/12/14 10:23:20;;;;;;;21.05;17.07;;;27.10;56.40;;;;;;1832700;76;21578;-71
2021/12/14 10:25:52;;;;;;;24.20;17.65;;;27.00;56.70;;;;;;1839370;76;21240;-72
2021/12/14 10:28:25;;;;;;;28.35;19.20;;;27.00;57.00;;;;;;1847493;76;21701;-71
2021/12/14 10:31:01;;;;;;;26.02;18.48;;;26.90;56.80;;;;;;1834273;76;21718;-71
2021/12/14 10:33:34;;;;;;;23.97;19.03;;;26.90;57.00;;;;;;1838884;76;21201;-70
2021/12/14 10:36:18;;;;;;;32.40;21.90;;;26.90;57.30;;;;;;1832947;78;21134;-70
2021/12/14 10:39:04;;;;;;;27.55;19.50;;;26.80;57.40;;;;;;1843868;76;21256;-71
2021/12/14 10:43:50;;;;;;;30.25;21.40;;;26.80;57.50;;;;;;1840117;76;21755;-70
2021/12/14 10:46:23;;;;;;;27.87;20.80;;;26.70;57.70;;;;;;1838570;76;22119;-70
2021/12/14 10:48:56;;;;;;;34.75;23.57;;;26.70;58.00;;;;;;1842477;76;21780;-70
2021/12/14 10:51:29;;;;;;;30.25;22.35;;;26.70;58.00;;;;;;1839165;76;22023;-71
2021/12/14 10:54:03;;;;;;;38.67;22.80;;;26.70;58.20;;;;;;1833535;76;21126;-69
2021/12/14 10:56:43;;;;;;;32.35;23.00;;;26.60;58.20;;;;;;1842213;76;22011;-70
2021/12/14 10:59:13;;;;;;;46.23;28.42;;;26.60;58.50;;;;;;1838401;76;21181;-70
2021/12/14 11:01:49;;;;;;;49.70;31.02;;;26.50;58.40;;;;;;1847454;76;21614;-70
2021/12/14 11:04:20;;;;;;;42.83;26.90;;;26.50;58.50;;;;;;1840172;76;21688;-70
2021/12/14 11:06:52;;;;;;;36.85;24.60;;;26.50;58.70;;;;;;1840113;76;22351;-71
2021/12/14 11:11:59;;;;;;;41.48;27.48;;;26.40;58.90;;;;;;1845408;76;21209;-71
2021/12/14 11:14:34;;;;;;;37.48;25.65;;;26.40;59.10;;;;;;1840723;77;21178;-72
2021/12/14 11:19:42;;;;;;;46.83;33.18;;;26.40;59.20;;;;;;1841185;76;21232;-72
2021/12/14 11:22:15;;;;;;;52.55;36.38;;;26.30;59.30;;;;;;1834885;77;21650;-72
2021/12/14 11:24:49;;;;;;;43.85;29.90;;;26.30;59.40;;;;;;1841728;76;21183;-70
2021/12/14 11:27:22;;;;;;;41.30;30.23;;;26.30;59.60;;;;;;1836048;77;22157;-72
2021/12/14 11:29:56;;;;;;;49.30;34.83;;;26.20;59.80;;;;;;1840191;76;21655;-72
2021/12/14 11:32:27;;;;;;;43.87;31.65;;;26.20;59.80;;;;;;1835441;77;21664;-71
2021/12/14 11:35:01;;;;;;;44.67;32.00;;;26.20;59.80;;;;;;1842120;76;21719;-71
2021/12/14 11:37:34;;;;;;;47.83;32.60;;;26.20;59.90;;;;;;1837182;78;21146;-71
2021/12/14 11:40:05;;;;;;;49.13;32.73;;;26.20;60.10;;;;;;1840614;78;21684;-71
2021/12/14 11:42:36;;;;;;;46.83;31.12;;;26.10;60.00;;;;;;1840701;76;21293;-71
2021/12/14 11:45:09;;;;;;;45.60;31.30;;;26.20;60.30;;;;;;1841351;76;21091;-71
2021/12/14 11:47:46;;;;;;;44.40;30.75;;;26.10;60.40;;;;;;1841856;76;21044;-71
2021/12/14 11:50:17;;;;;;;45.17;31.07;;;26.10;60.40;;;;;;1837347;78;21096;-71
2021/12/14 11:52:51;;;;;;;46.45;30.40;;;26.10;60.40;;;;;;1840772;78;21861;-71
2021/12/14 11:55:24;;;;;;;42.00;29.65;;;26.10;60.60;;;;;;1839358;78;21138;-72
2021/12/14 11:57:57;;;;;;;48.90;31.75;;;26.00;60.60;;;;;;1840862;77;21249;-71
2021/12/14 12:00:28;;;;;;;38.50;28.73;;;26.00;60.60;;;;;;1836775;78;21079;-71
2021/12/14 12:03:03;;;;;;;41.23;29.65;;;26.00;60.80;;;;;;1848235;76;21719;-71
2021/12/14 12:05:36;;;;;;;41.73;29.92;;;26.00;60.90;;;;;;1838014;76;21527;-71
2021/12/14 12:10:43;;;;;;;44.90;32.00;;;25.90;61.00;;;;;;1851952;76;21124;-71
2021/12/14 12:13:14;;;;;;;42.17;29.45;;;26.00;61.10;;;;;;1846192;76;21072;-71
2021/12/14 12:15:47;;;;;;;42.78;30.95;;;25.90;61.10;;;;;;1853929;76;21905;-71
2021/12/14 12:18:18;;;;;;;44.53;32.85;;;25.90;61.30;;;;;;1857537;76;21232;-71
2021/12/14 12:20:50;;;;;;;50.03;33.75;;;25.90;61.20;;;;;;1854716;76;21126;-71
2021/12/14 12:23:24;;;;;;;47.05;32.30;;;25.90;61.30;;;;;;1848671;76;21704;-71
2021/12/14 12:25:59;;;;;;;44.25;32.28;;;25.90;61.40;;;;;;1847807;76;21645;-71
2021/12/14 12:28:33;;;;;;;47.30;33.67;;;25.90;61.40;;;;;;1853933;76;21674;-72
2021/12/14 12:31:10;;;;;;;46.90;33.33;;;25.80;61.40;;;;;;1849154;76;21135;-70
2021/12/14 12:33:41;;;;;;;47.95;33.98;;;25.90;61.60;;;;;;1846205;76;21154;-71
2021/12/14 12:36:14;;;;;;;49.38;35.70;;;25.80;61.50;;;;;;1845958;76;21182;-71
2021/12/14 12:38:47;;;;;;;48.65;34.45;;;25.80;61.50;;;;;;1840222;76;21264;-70
2021/12/14 12:41:25;;;;;;;47.67;33.33;;;25.80;61.50;;;;;;1844063;76;21142;-71
2021/12/14 12:43:55;;;;;;;52.08;37.83;;;25.80;61.50;;;;;;1850339;76;21670;-71
2021/12/14 12:46:28;;;;;;;52.10;36.00;;;25.80;61.60;;;;;;1847603;76;21242;-71
2021/12/14 12:49:00;;;;;;;54.65;37.35;;;25.80;61.80;;;;;;1846579;76;21616;-70
2021/12/14 12:51:34;;;;;;;54.45;39.05;;;25.80;61.80;;;;;;1845856;76;21936;-71
2021/12/14 12:54:07;;;;;;;53.78;39.55;;;25.70;61.60;;;;;;1850714;76;21166;-70
2021/12/14 12:56:41;;;;;;;50.98;38.42;;;25.70;61.80;;;;;;1848661;76;21202;-70
2021/12/14 12:59:12;;;;;;;56.92;39.98;;;25.70;61.90;;;;;;1843614;76;21911;-70
2021/12/14 13:01:44;;;;;;;61.28;44.75;;;25.70;61.90;;;;;;1840084;77;21202;-70
2021/12/14 13:04:16;;;;;;;63.42;43.63;;;25.70;62.00;;;;;;1843112;76;21549;-70
2021/12/14 13:06:47;;;;;;;60.17;44.00;;;25.60;62.00;;;;;;1840123;76;21771;-71
2021/12/14 13:09:18;;;;;;;62.55;42.75;;;25.60;62.10;;;;;;1834135;77;21151;-71
2021/12/14 13:11:49;;;;;;;57.88;40.80;;;25.60;62.20;;;;;;1842645;76;21608;-71
2021/12/14 13:14:20;;;;;;;58.45;40.25;;;25.60;62.40;;;;;;1839731;76;21159;-71
2021/12/14 13:16:51;;;;;;;61.65;39.65;;;25.50;62.40;;;;;;1853966;76;21165;-71
2021/12/14 13:19:29;;;;;;;56.95;39.75;;;25.50;62.40;;;;;;1854288;76;21122;-72
2021/12/14 13:22:02;;;;;;;57.78;38.25;;;25.50;62.50;;;;;;1855231;76;21125;-72
2021/12/14 13:24:35;;;;;;;53.70;38.35;;;25.50;62.60;;;;;;1860272;76;21491;-71
2021/12/14 13:27:08;;;;;;;49.93;36.13;;;25.50;62.60;;;;;;1856950;76;21137;-70
2021/12/14 13:29:44;;;;;;;51.83;35.35;;;25.50;62.60;;;;;;1853360;76;21170;-71
2021/12/14 13:32:21;;;;;;;53.48;37.13;;;25.40;62.60;;;;;;1859876;76;21137;-74